Akron, Alabama
Current Conditions -  °F | °C
As of 7:53 AM on Monday 22 Dec 2014 (Local Time) from KTCL Reporting Station
Haze Haze  
Wind Chill: 52°   Ceiling: 500
Heat Index: 52°   Visibility: 4mi
Dew Point: 50°   Wind: 5mph
Humidity: 93%   Direction: 100°E
Pressure: 29.93"   Gusts: NA
Location:  32.88°N, 87.74°W
Report Text: KTCL 221353Z 10004KT 4SM BR OVC005 11/10 A2993 RMK AO2 SLP135 T01110100
Loading
Personal Weather Stations






























Interactive Weather Map New forecast layout! Learn more

10-Day Weather Forecast

Advertisements
Track Severe Weather on mobile